createdAt,value
2017-10-19T00:00:46.513Z,100982.29
2017-10-19T00:03:14.042Z,100978.63
2017-10-19T00:05:41.546Z,100981.48
2017-10-19T00:08:09.273Z,100984.01
2017-10-19T00:10:36.773Z,100983.84
2017-10-19T00:13:04.274Z,100983.45
2017-10-19T00:15:31.799Z,100985.15
2017-10-19T00:17:59.288Z,100986.56
2017-10-19T00:20:26.780Z,100991.02
2017-10-19T00:22:54.319Z,100982.44
2017-10-19T00:25:21.807Z,100977.67
2017-10-19T00:27:49.340Z,100981.42
2017-10-19T00:30:16.912Z,100981.66
2017-10-19T00:32:44.444Z,100980.23
2017-10-19T00:35:12.037Z,100981.20
2017-10-19T00:37:39.592Z,100977.78
2017-10-19T00:40:07.116Z,100973.73
2017-10-19T00:42:34.649Z,100975.34
2017-10-19T00:45:02.230Z,100973.25
2017-10-19T00:47:29.760Z,100969.79
2017-10-19T00:49:57.289Z,100970.61
2017-10-19T00:52:24.879Z,100979.28
2017-10-19T00:54:52.413Z,100968.55
2017-10-19T00:57:19.917Z,100968.64
2017-10-19T00:59:47.445Z,100969.59
2017-10-19T01:02:14.946Z,100964.29
2017-10-19T01:04:42.439Z,100960.48
2017-10-19T01:07:10.070Z,100966.25
2017-10-19T01:09:38.427Z,100965.27
2017-10-19T01:12:05.919Z,100963.94
2017-10-19T01:14:33.443Z,100962.08
2017-10-19T01:17:00.934Z,100965.29
2017-10-19T01:19:28.428Z,100963.33
2017-10-19T01:21:55.963Z,100966.97
2017-10-19T01:24:23.459Z,100963.64
2017-10-19T01:26:50.956Z,100960.86
2017-10-19T01:29:18.615Z,100958.16
2017-10-19T01:31:46.108Z,100952.57
2017-10-19T01:34:13.606Z,100957.14
2017-10-19T01:36:41.156Z,100958.09
2017-10-19T01:39:08.656Z,100953.61
2017-10-19T01:41:36.154Z,100951.22
2017-10-19T01:44:03.695Z,100951.30
2017-10-19T01:46:31.228Z,100948.59
2017-10-19T01:48:58.720Z,100949.00
2017-10-19T01:51:26.258Z,100946.66
2017-10-19T01:53:53.757Z,100948.86
2017-10-19T01:56:21.252Z,100949.80
2017-10-19T01:58:48.924Z,100948.11
2017-10-19T02:01:16.420Z,100944.78
2017-10-19T02:03:43.930Z,100942.83
2017-10-19T02:06:11.495Z,100946.19
2017-10-19T02:08:38.992Z,100944.75
2017-10-19T02:11:06.509Z,100948.00
2017-10-19T02:13:34.068Z,100950.22
2017-10-19T02:16:01.568Z,100953.28
2017-10-19T02:18:29.058Z,100954.02
2017-10-19T02:20:56.748Z,100948.19
2017-10-19T02:23:24.247Z,100949.45
2017-10-19T02:25:51.736Z,100952.67
2017-10-19T02:28:19.349Z,100953.41
2017-10-19T02:30:46.841Z,100954.77
2017-10-19T02:33:14.332Z,100953.95
2017-10-19T02:35:41.882Z,100958.42
2017-10-19T02:38:09.380Z,100961.45
2017-10-19T02:40:36.877Z,100964.98
2017-10-19T02:43:04.479Z,100957.19
2017-10-19T02:45:32.039Z,100957.52
2017-10-19T02:47:59.536Z,100968.07
2017-10-19T02:50:27.063Z,100958.17
2017-10-19T02:52:54.613Z,100969.30
2017-10-19T02:55:22.170Z,100969.02
2017-10-19T02:57:49.740Z,100967.26
2017-10-19T03:00:17.231Z,100967.91
2017-10-19T03:02:44.763Z,100964.26
2017-10-19T03:05:12.307Z,100962.91
2017-10-19T03:07:39.868Z,100964.14
2017-10-19T03:10:07.523Z,100975.41
2017-10-19T03:12:35.020Z,100969.62
2017-10-19T03:15:02.512Z,100974.02
2017-10-19T03:17:30.043Z,100974.02
2017-10-19T03:19:57.530Z,100975.13
2017-10-19T03:22:25.036Z,100972.33
2017-10-19T03:24:52.675Z,100964.12
2017-10-19T03:27:20.171Z,100963.55
2017-10-19T03:29:47.663Z,100970.23
2017-10-19T03:32:15.208Z,100972.91
2017-10-19T03:34:42.696Z,100978.78
2017-10-19T03:37:10.196Z,100979.03
2017-10-19T03:39:37.837Z,100972.29
2017-10-19T03:42:05.339Z,100982.72
2017-10-19T03:44:32.849Z,100979.60
2017-10-19T03:47:00.411Z,100982.76
2017-10-19T03:49:27.965Z,100984.08
2017-10-19T03:51:55.460Z,100981.20
2017-10-19T03:54:23.000Z,100982.02
2017-10-19T03:56:50.503Z,100981.81
2017-10-19T03:59:17.996Z,100985.47
2017-10-19T04:01:45.525Z,100980.70
2017-10-19T04:04:13.021Z,100979.14
2017-10-19T04:06:40.508Z,100977.17
2017-10-19T04:09:08.034Z,100977.38
2017-10-19T04:11:35.532Z,100978.23
2017-10-19T04:14:03.026Z,100972.00
2017-10-19T04:16:30.544Z,100967.66
2017-10-19T04:18:58.068Z,100971.52
2017-10-19T04:21:25.544Z,100964.69
2017-10-19T04:23:53.286Z,100964.65
2017-10-19T04:26:20.845Z,100962.11
2017-10-19T04:28:48.403Z,100959.33
2017-10-19T04:31:15.973Z,100957.71
2017-10-19T04:33:43.520Z,100953.53
2017-10-19T04:36:11.007Z,100954.56
2017-10-19T04:38:38.627Z,100961.12
2017-10-19T04:41:06.113Z,100969.20
2017-10-19T04:43:33.595Z,100965.47
2017-10-19T04:46:01.194Z,100967.50
2017-10-19T04:48:28.689Z,100966.18
2017-10-19T04:50:56.231Z,100968.51
2017-10-19T04:53:23.798Z,100969.95
2017-10-19T04:55:51.354Z,100972.86
2017-10-19T04:58:18.852Z,100970.27
2017-10-19T05:00:46.420Z,100971.86
2017-10-19T05:03:13.913Z,100968.66
2017-10-19T05:05:41.406Z,100969.39
2017-10-19T05:08:08.953Z,100979.48
2017-10-19T05:10:36.448Z,100980.59
2017-10-19T05:13:03.940Z,100980.98
2017-10-19T05:15:31.620Z,100985.19
2017-10-19T05:17:59.111Z,100978.15
2017-10-19T05:20:26.608Z,100984.88
2017-10-19T05:22:54.155Z,100981.69
2017-10-19T05:25:21.651Z,100976.02
2017-10-19T05:27:49.146Z,100979.19
2017-10-19T05:30:16.688Z,100973.31
2017-10-19T05:32:44.183Z,100978.48
2017-10-19T05:35:11.679Z,100973.06
2017-10-19T05:37:39.340Z,100981.69
2017-10-19T05:40:06.924Z,100987.31
2017-10-19T05:42:34.462Z,100984.15
2017-10-19T05:45:01.987Z,100986.11
2017-10-19T05:47:29.489Z,100990.66
2017-10-19T05:49:56.984Z,100992.38
2017-10-19T05:52:24.595Z,100998.70
2017-10-19T05:54:52.161Z,101002.31
2017-10-19T05:57:19.715Z,101003.16
2017-10-19T05:59:47.372Z,101008.97
2017-10-19T06:02:14.868Z,101007.54
2017-10-19T06:04:42.363Z,100998.05
2017-10-19T06:07:10.052Z,101006.02
2017-10-19T06:09:37.607Z,101002.77
2017-10-19T06:12:05.107Z,101012.32
2017-10-19T06:14:32.652Z,101016.91
2017-10-19T06:17:00.145Z,101019.91
2017-10-19T06:19:27.641Z,101018.70
2017-10-19T06:21:55.169Z,101018.50
2017-10-19T06:24:22.677Z,101026.20
2017-10-19T06:26:50.335Z,101024.23
2017-10-19T06:29:17.833Z,101027.97
2017-10-19T06:31:45.343Z,101026.30
2017-10-19T06:34:12.884Z,101028.00
2017-10-19T06:36:40.373Z,101029.55
2017-10-19T06:39:07.888Z,101022.91
2017-10-19T06:41:35.598Z,101034.74
2017-10-19T06:44:03.091Z,101034.81
2017-10-19T06:46:30.594Z,101032.03
2017-10-19T06:48:58.255Z,101028.25
2017-10-19T06:51:25.745Z,101030.41
2017-10-19T06:53:53.246Z,101030.16
2017-10-19T06:56:20.786Z,101034.22
2017-10-19T06:58:48.285Z,101029.41
2017-10-19T07:01:15.784Z,101032.22
2017-10-19T07:03:43.363Z,101039.01
2017-10-19T07:06:10.884Z,101033.16
2017-10-19T07:08:38.381Z,101040.32
2017-10-19T07:11:05.983Z,101046.48
2017-10-19T07:13:33.479Z,101047.10
2017-10-19T07:16:00.970Z,101046.00
2017-10-19T07:18:28.554Z,101049.81
2017-10-19T07:20:56.048Z,101049.73
2017-10-19T07:23:23.543Z,101046.13
2017-10-19T07:25:51.080Z,101053.84
2017-10-19T07:28:18.568Z,101054.55
2017-10-19T07:30:46.066Z,101055.56
2017-10-19T07:33:13.595Z,101049.48
2017-10-19T07:35:41.088Z,101059.02
2017-10-19T07:38:08.593Z,101053.88
2017-10-19T07:40:36.148Z,101064.73
2017-10-19T07:43:03.640Z,101059.52
2017-10-19T07:45:31.203Z,101064.29
2017-10-19T07:47:58.748Z,101066.08
2017-10-19T07:50:26.257Z,101067.97
2017-10-19T07:52:53.753Z,101068.29
2017-10-19T07:55:21.355Z,101060.84
2017-10-19T07:57:48.854Z,101060.94
2017-10-19T08:00:16.353Z,101068.86
2017-10-19T08:02:43.888Z,101064.34
2017-10-19T08:05:12.353Z,101072.45
2017-10-19T08:07:39.842Z,101066.58
2017-10-19T08:10:07.383Z,101067.28
2017-10-19T08:12:34.881Z,101073.78
2017-10-19T08:15:02.428Z,101066.33
2017-10-19T08:17:29.965Z,101065.78
2017-10-19T08:19:57.456Z,101069.18
2017-10-19T08:22:24.995Z,101065.22
2017-10-19T08:24:52.510Z,101067.59
2017-10-19T08:27:20.037Z,101067.19
2017-10-19T08:29:47.591Z,101063.66
2017-10-19T08:32:15.087Z,101058.92
2017-10-19T08:34:42.718Z,101065.23
2017-10-19T08:37:10.238Z,101061.34
2017-10-19T08:39:37.816Z,101077.18
2017-10-19T08:42:05.310Z,101069.50
2017-10-19T08:44:32.848Z,101069.71
2017-10-19T08:47:00.398Z,101071.34
2017-10-19T08:49:27.885Z,101069.39
2017-10-19T08:51:55.408Z,101069.94
2017-10-19T08:54:22.900Z,101068.13
2017-10-19T08:56:50.424Z,101066.42
2017-10-19T08:59:17.955Z,101074.88
2017-10-19T09:01:45.448Z,101077.55
2017-10-19T09:04:12.991Z,101085.08
2017-10-19T09:06:40.523Z,101086.19
2017-10-19T09:09:08.031Z,101084.70
2017-10-19T09:11:35.521Z,101088.19
2017-10-19T09:14:03.065Z,101082.78
2017-10-19T09:16:30.583Z,101092.73
2017-10-19T09:18:58.086Z,101085.60
2017-10-19T09:21:25.619Z,101080.17
2017-10-19T09:23:53.107Z,101080.39
2017-10-19T09:26:20.610Z,101074.86
2017-10-19T09:28:48.178Z,101074.73
2017-10-19T09:31:15.736Z,101075.59
2017-10-19T09:33:43.229Z,101090.27
2017-10-19T09:36:10.772Z,101097.41
2017-10-19T09:38:38.263Z,101094.73
2017-10-19T09:41:05.775Z,101090.84
2017-10-19T09:43:33.354Z,101092.13
2017-10-19T09:46:00.848Z,101095.48
2017-10-19T09:48:28.342Z,101091.19
2017-10-19T09:50:56.013Z,101086.23
2017-10-19T09:53:23.511Z,101085.45
2017-10-19T09:55:51.003Z,101083.03
2017-10-19T09:58:18.683Z,101082.34
2017-10-19T10:00:46.180Z,101090.41
2017-10-19T10:03:13.711Z,101082.16
2017-10-19T10:05:41.241Z,101093.11
2017-10-19T10:08:08.739Z,101091.57
2017-10-19T10:10:36.282Z,101088.95
2017-10-19T10:13:03.840Z,101089.90
2017-10-19T10:15:31.326Z,101095.86
2017-10-19T10:17:58.815Z,101094.22
2017-10-19T10:20:26.355Z,101088.69
2017-10-19T10:22:53.868Z,101097.22
2017-10-19T10:25:21.372Z,101091.05
2017-10-19T10:27:48.988Z,101093.27
2017-10-19T10:30:16.476Z,101088.13
2017-10-19T10:32:43.971Z,101091.37
2017-10-19T10:35:11.567Z,101088.84
2017-10-19T10:37:39.060Z,101092.97
2017-10-19T10:40:06.586Z,101084.82
2017-10-19T10:42:34.124Z,101077.97
2017-10-19T10:45:01.625Z,101081.30
2017-10-19T10:47:29.138Z,101075.45
2017-10-19T10:49:56.663Z,101076.11
2017-10-19T10:52:24.161Z,101069.96
2017-10-19T10:54:51.681Z,101068.36
2017-10-19T10:57:19.213Z,101067.09
2017-10-19T10:59:46.708Z,101072.05
2017-10-19T11:02:14.311Z,101066.17
2017-10-19T11:04:41.856Z,101068.02
2017-10-19T11:07:09.353Z,101057.70
2017-10-19T11:09:36.857Z,101063.03
2017-10-19T11:12:04.408Z,101061.97
2017-10-19T11:14:31.903Z,101053.51
2017-10-19T11:16:59.464Z,101057.48
2017-10-19T11:19:26.992Z,101055.83
2017-10-19T11:21:54.491Z,101064.14
2017-10-19T11:24:22.040Z,101067.83
2017-10-19T11:26:49.585Z,101067.25
2017-10-19T11:29:17.082Z,101066.12
2017-10-19T11:31:44.580Z,101067.14
2017-10-19T11:34:12.105Z,101063.42
2017-10-19T11:36:39.605Z,101069.81
2017-10-19T11:39:07.092Z,101062.43
2017-10-19T11:41:34.630Z,101062.34
2017-10-19T11:44:02.204Z,101056.44
2017-10-19T11:46:29.701Z,101052.62
2017-10-19T11:48:57.237Z,101047.44
2017-10-19T11:51:24.737Z,101042.45
2017-10-19T11:53:52.252Z,101042.71
2017-10-19T11:56:19.780Z,101047.45
2017-10-19T11:58:47.274Z,101044.27
2017-10-19T12:01:14.764Z,101042.36
2017-10-19T12:03:42.294Z,101043.55
2017-10-19T12:06:09.825Z,101045.09
2017-10-19T12:08:37.367Z,101042.70
2017-10-19T12:11:04.927Z,101037.84
2017-10-19T12:13:32.422Z,101035.28
2017-10-19T12:15:59.911Z,101037.88
2017-10-19T12:18:27.437Z,101036.89
2017-10-19T12:20:54.936Z,101034.57
2017-10-19T12:23:22.537Z,101032.41
2017-10-19T12:25:50.111Z,101034.09
2017-10-19T12:28:17.613Z,101028.25
2017-10-19T12:30:45.109Z,101026.66
2017-10-19T12:33:12.628Z,101025.48
2017-10-19T12:35:40.133Z,101026.20
2017-10-19T12:38:07.664Z,101029.62
2017-10-19T12:40:35.252Z,101031.84
2017-10-19T12:43:02.747Z,101036.56
2017-10-19T12:45:30.291Z,101029.47
2017-10-19T12:47:57.835Z,101037.14
2017-10-19T12:50:25.340Z,101026.09
2017-10-19T12:52:53.043Z,101028.59
2017-10-19T12:55:20.529Z,101026.34
2017-10-19T12:57:48.066Z,101025.02
2017-10-19T13:00:15.731Z,101020.95
2017-10-19T13:02:43.228Z,101031.69
2017-10-19T13:05:10.732Z,101025.16
2017-10-19T13:07:38.408Z,101023.73
2017-10-19T13:10:05.972Z,101019.48
2017-10-19T13:12:33.465Z,101015.87
2017-10-19T13:15:01.003Z,101012.49
2017-10-19T13:17:28.500Z,101012.70
2017-10-19T13:19:56.007Z,101012.77
2017-10-19T13:22:23.545Z,101006.20
2017-10-19T13:24:51.043Z,101008.97
2017-10-19T13:27:18.546Z,101013.25
2017-10-19T13:29:46.086Z,101014.49
2017-10-19T13:32:13.583Z,101011.30
2017-10-19T13:34:41.146Z,101001.56
2017-10-19T13:37:08.677Z,101004.00
2017-10-19T13:39:36.168Z,101002.66
2017-10-19T13:42:03.730Z,101005.31
2017-10-19T13:44:31.262Z,101004.14
2017-10-19T13:46:58.759Z,101005.51
2017-10-19T13:49:26.259Z,101006.91
2017-10-19T13:51:53.805Z,101004.91
2017-10-19T13:54:21.295Z,101006.31
2017-10-19T13:56:48.883Z,101003.02
2017-10-19T13:59:16.411Z,101001.42
2017-10-19T14:01:43.998Z,100999.04
2017-10-19T14:04:11.555Z,100997.95
2017-10-19T14:06:39.215Z,100996.30
2017-10-19T14:09:06.715Z,100997.98
2017-10-19T14:11:34.243Z,100988.84
2017-10-19T14:14:01.810Z,100990.58
2017-10-19T14:16:29.303Z,100994.52
2017-10-19T14:18:56.818Z,100996.50
2017-10-19T14:21:24.348Z,100996.03
2017-10-19T14:23:51.854Z,101001.13
2017-10-19T14:26:19.353Z,100999.46
2017-10-19T14:28:46.878Z,100998.51
2017-10-19T14:31:14.379Z,100996.91
2017-10-19T14:33:42.060Z,101000.55
2017-10-19T14:36:09.576Z,100994.01
2017-10-19T14:38:37.084Z,100994.59
2017-10-19T14:41:04.623Z,100999.55
2017-10-19T14:43:32.116Z,100992.43
2017-10-19T14:45:59.612Z,100989.21
2017-10-19T14:48:27.161Z,100988.52
2017-10-19T14:50:54.661Z,100988.35
2017-10-19T14:53:22.255Z,100986.81
2017-10-19T14:55:49.797Z,100989.36
2017-10-19T14:58:17.298Z,100984.95
2017-10-19T15:00:44.862Z,100982.36
2017-10-19T15:03:12.361Z,100982.25
2017-10-19T15:05:39.958Z,100980.73
2017-10-19T15:08:07.498Z,100978.02
2017-10-19T15:10:35.039Z,100965.70
2017-10-19T15:13:02.698Z,100960.31
2017-10-19T15:15:30.291Z,100964.27
2017-10-19T15:17:57.801Z,100964.64
2017-10-19T15:20:25.518Z,100964.77
2017-10-19T15:22:53.076Z,100962.87
2017-10-19T15:25:20.594Z,100964.32
2017-10-19T15:27:48.150Z,100962.73
2017-10-19T15:30:15.654Z,100959.14
2017-10-19T15:32:43.217Z,100960.98
2017-10-19T15:35:10.761Z,100963.52
2017-10-19T15:37:38.275Z,100969.88
2017-10-19T15:40:05.787Z,100968.19
2017-10-19T15:42:33.336Z,100964.84
2017-10-19T15:45:01.055Z,100962.48
2017-10-19T15:47:28.582Z,100968.42
2017-10-19T15:49:56.108Z,100967.47
2017-10-19T15:52:23.786Z,100969.15
2017-10-19T15:54:51.291Z,100969.77
2017-10-19T15:57:18.803Z,100964.09
2017-10-19T15:59:46.384Z,100963.51
2017-10-19T16:02:13.935Z,100958.11
2017-10-19T16:04:41.513Z,100958.06
2017-10-19T16:07:09.825Z,100954.16
2017-10-19T16:09:37.392Z,100954.94
2017-10-19T16:12:04.920Z,100953.34
2017-10-19T16:14:32.451Z,100948.92
2017-10-19T16:17:00.028Z,100947.33
2017-10-19T16:19:27.653Z,100949.92
2017-10-19T16:21:56.982Z,100945.20
2017-10-19T16:24:24.621Z,100945.80
2017-10-19T16:29:25.930Z,100943.89
2017-10-19T16:31:53.470Z,100949.92
2017-10-19T16:34:21.003Z,100946.66
2017-10-19T16:36:48.540Z,100951.13
2017-10-19T16:39:16.255Z,100954.24
2017-10-19T16:41:43.758Z,100947.25
2017-10-19T16:44:11.264Z,100952.75
2017-10-19T16:46:38.795Z,100951.75
2017-10-19T16:49:06.292Z,100954.94
2017-10-19T16:51:33.888Z,100953.44
2017-10-19T16:54:01.424Z,100956.47
2017-10-19T16:56:28.935Z,100957.83
2017-10-19T16:58:56.435Z,100966.20
2017-10-19T17:01:24.134Z,100963.56
2017-10-19T17:03:51.636Z,100969.72
2017-10-19T17:06:19.145Z,100967.12
2017-10-19T17:08:46.977Z,100962.45
2017-10-19T17:11:14.473Z,100959.27
2017-10-19T17:13:41.975Z,100962.30
2017-10-19T17:16:09.524Z,100962.52
2017-10-19T17:18:37.020Z,100956.86
2017-10-19T17:21:04.516Z,100956.86
2017-10-19T17:23:32.072Z,100960.05
2017-10-19T17:25:59.569Z,100958.24
2017-10-19T17:28:27.069Z,100957.30
2017-10-19T17:30:54.644Z,100958.35
2017-10-19T17:33:22.174Z,100964.12
2017-10-19T17:35:49.685Z,100970.94
2017-10-19T17:38:17.334Z,100968.55
2017-10-19T17:40:44.836Z,100972.40
2017-10-19T17:43:12.326Z,100976.95
2017-10-19T17:45:39.999Z,100965.28
2017-10-19T17:48:07.551Z,100964.77
2017-10-19T17:50:35.078Z,100965.63
2017-10-19T17:53:02.795Z,100961.48
2017-10-19T17:55:30.322Z,100964.62
2017-10-19T17:57:57.905Z,100965.80
2017-10-19T18:00:25.497Z,100961.84
2017-10-19T18:02:53.012Z,100967.69
2017-10-19T18:05:20.522Z,100956.34
2017-10-19T18:07:48.215Z,100954.89
2017-10-19T18:10:15.750Z,100957.70
2017-10-19T18:12:43.270Z,100958.02
2017-10-19T18:15:10.833Z,100959.84
2017-10-19T18:17:38.361Z,100962.30
2017-10-19T18:20:05.893Z,100962.61
2017-10-19T18:22:33.430Z,100962.80
2017-10-19T18:25:01.005Z,100959.17
2017-10-19T18:27:28.520Z,100963.66
2017-10-19T18:29:56.022Z,100954.42
2017-10-19T18:32:23.733Z,100959.94
2017-10-19T18:34:51.330Z,100960.58
2017-10-19T18:37:18.862Z,100962.80
2017-10-19T18:39:46.424Z,100963.30
2017-10-19T18:42:13.933Z,100954.14
2017-10-19T18:44:41.457Z,100960.77
2017-10-19T18:47:09.044Z,100962.44
2017-10-19T18:49:36.549Z,100966.93
2017-10-19T18:52:04.068Z,100961.59
2017-10-19T18:54:31.958Z,100957.35
2017-10-19T18:56:59.452Z,100957.09
2017-10-19T18:59:26.950Z,100958.94
2017-10-19T19:01:54.488Z,100955.75
2017-10-19T19:04:21.987Z,100947.64
2017-10-19T19:06:49.572Z,100953.19
2017-10-19T19:09:17.320Z,100949.09
2017-10-19T19:11:44.881Z,100949.21
2017-10-19T19:14:12.375Z,100953.78
2017-10-19T19:16:39.924Z,100959.58
2017-10-19T19:19:07.420Z,100958.52
2017-10-19T19:21:35.032Z,100960.13
2017-10-19T19:24:02.560Z,100960.17
2017-10-19T19:26:30.134Z,100957.99
2017-10-19T19:28:57.690Z,100957.05
2017-10-19T19:31:25.567Z,100960.90
2017-10-19T19:33:53.064Z,100958.87
2017-10-19T19:36:20.584Z,100954.03
2017-10-19T19:38:48.435Z,100956.97
2017-10-19T19:41:16.019Z,100960.23
2017-10-19T19:43:43.512Z,100956.69
2017-10-19T19:46:11.326Z,100956.74
2017-10-19T19:48:38.888Z,100960.42
2017-10-19T19:51:06.452Z,100954.20
2017-10-19T19:53:33.972Z,100949.13
2017-10-19T19:56:01.563Z,100955.31
2017-10-19T19:58:29.059Z,100957.88
2017-10-19T20:00:56.591Z,100959.75
2017-10-19T20:03:24.095Z,100963.84
2017-10-19T20:05:51.595Z,100963.50
2017-10-19T20:08:19.137Z,100962.50
2017-10-19T20:10:46.632Z,100953.98
2017-10-19T20:13:14.137Z,100959.94
2017-10-19T20:15:41.675Z,100960.70
2017-10-19T20:18:09.189Z,100959.65
2017-10-19T20:20:36.763Z,100959.89
2017-10-19T20:23:04.287Z,100965.13
2017-10-19T20:25:31.790Z,100962.07
2017-10-19T20:27:59.348Z,100963.54
2017-10-19T20:30:26.842Z,100959.56
2017-10-19T20:32:54.332Z,100964.07
2017-10-19T20:35:21.865Z,100956.48
2017-10-19T20:37:49.475Z,100962.60
2017-10-19T20:40:16.967Z,100970.04
2017-10-19T20:42:44.685Z,100960.84
2017-10-19T20:45:12.237Z,100956.69
2017-10-19T20:47:39.771Z,100957.40
2017-10-19T20:50:07.320Z,100958.58
2017-10-19T20:52:34.873Z,100957.62
2017-10-19T20:55:02.384Z,100956.35
2017-10-19T20:57:29.920Z,100958.76
2017-10-19T20:59:57.483Z,100954.98
2017-10-19T21:02:24.980Z,100944.17
2017-10-19T21:04:52.711Z,100949.14
2017-10-19T21:07:20.215Z,100950.59
2017-10-19T21:09:47.731Z,100947.23
2017-10-19T21:12:15.384Z,100951.97
2017-10-19T21:14:42.951Z,100951.06
2017-10-19T21:17:10.449Z,100945.63
2017-10-19T21:19:37.963Z,100938.23
2017-10-19T21:22:05.472Z,100938.78
2017-10-19T21:24:32.999Z,100943.27
2017-10-19T21:27:00.501Z,100940.00
2017-10-19T21:29:28.004Z,100938.64
2017-10-19T21:31:55.552Z,100938.77
2017-10-19T21:34:23.047Z,100933.38
2017-10-19T21:36:50.596Z,100926.64
2017-10-19T21:39:18.115Z,100930.25
2017-10-19T21:41:45.621Z,100920.42
2017-10-19T21:44:13.264Z,100919.79
2017-10-19T21:46:40.912Z,100923.87
2017-10-19T21:49:08.420Z,100921.21
2017-10-19T21:51:36.031Z,100919.59
2017-10-19T21:54:03.583Z,100919.38
2017-10-19T21:56:31.079Z,100917.95
2017-10-19T21:58:58.626Z,100915.67
2017-10-19T22:01:26.175Z,100909.29
2017-10-19T22:03:53.667Z,100916.02
2017-10-19T22:06:21.162Z,100920.50
2017-10-19T22:08:48.686Z,100917.62
2017-10-19T22:11:16.199Z,100906.75
2017-10-19T22:13:43.691Z,100918.09
2017-10-19T22:16:11.415Z,100912.02
2017-10-19T22:18:38.985Z,100909.70
2017-10-19T22:21:06.536Z,100908.34
2017-10-19T22:23:34.121Z,100906.08
2017-10-19T22:26:01.665Z,100907.16
2017-10-19T22:28:29.226Z,100896.28
2017-10-19T22:30:56.763Z,100896.16
2017-10-19T22:33:24.327Z,100899.83
2017-10-19T22:35:51.913Z,100889.90
2017-10-19T22:38:19.451Z,100890.13
2017-10-19T22:40:46.954Z,100885.69
2017-10-19T22:43:14.444Z,100886.48
2017-10-19T22:45:42.051Z,100880.68
2017-10-19T22:48:09.552Z,100882.39
2017-10-19T22:50:37.047Z,100882.88
2017-10-19T22:53:04.568Z,100883.56
2017-10-19T22:55:32.164Z,100882.39
2017-10-19T22:57:59.720Z,100882.41
2017-10-19T23:00:28.071Z,100882.81
2017-10-19T23:02:55.556Z,100878.67
2017-10-19T23:05:23.063Z,100874.55
2017-10-19T23:07:50.679Z,100881.91
2017-10-19T23:10:18.243Z,100883.50
2017-10-19T23:12:45.749Z,100878.41
2017-10-19T23:15:13.268Z,100890.39
2017-10-19T23:17:40.766Z,100887.48
2017-10-19T23:20:08.263Z,100889.95
2017-10-19T23:22:35.829Z,100885.13
2017-10-19T23:25:04.145Z,100888.95
2017-10-19T23:27:31.644Z,100880.20
2017-10-19T23:29:59.164Z,100876.06
2017-10-19T23:32:26.659Z,100880.36
2017-10-19T23:34:54.159Z,100882.82
2017-10-19T23:37:21.901Z,100879.09
2017-10-19T23:39:49.396Z,100876.51
2017-10-19T23:42:16.915Z,100878.44
2017-10-19T23:44:44.479Z,100876.25
2017-10-19T23:47:12.109Z,100870.89
2017-10-19T23:49:39.610Z,100875.72
2017-10-19T23:52:07.147Z,100874.17
2017-10-19T23:54:34.652Z,100881.43
2017-10-19T23:57:02.154Z,100884.20
2017-10-19T23:59:29.827Z,100886.70
